Time;durP1;ratioP1;P1;durP2;ratioP2;P2;SDS_P1;SDS_P2;PMS_P1;PMS_P2;Temp;Humidity;BMP_temperature;BMP_pressure;BME280_temperature;BME280_humidity;BME280_pressure;Samples;Min_cycle;Max_cycle;Signal;HPM_P1;HPM_P2
2021/07/23 03:30:09;;;;;;;3.42;3.13;;;25.40;95.00;;;;;;4812032;29;20066;-90
2021/07/23 03:32:48;;;;;;;3.55;3.17;;;25.40;95.00;;;;;;4818739;29;20098;-90
2021/07/23 03:35:16;;;;;;;3.33;3.00;;;25.50;95.00;;;;;;4807054;29;20065;-90
2021/07/23 03:37:47;;;;;;;2.83;2.63;;;25.50;95.00;;;;;;4812853;29;20019;-90
2021/07/23 03:40:18;;;;;;;3.22;2.92;;;25.50;95.00;;;;;;4816424;29;20050;-90
2021/07/23 03:42:44;;;;;;;4.03;3.47;;;25.50;95.00;;;;;;4792309;29;20039;-93
2021/07/23 03:45:15;;;;;;;3.45;3.15;;;25.50;95.00;;;;;;4808741;29;20035;-89
2021/07/23 03:47:50;;;;;;;3.45;2.95;;;25.50;95.00;;;;;;4807895;29;20158;-90
2021/07/23 03:50:31;;;;;;;3.20;2.90;;;25.50;95.00;;;;;;4791964;29;20494;-90
2021/07/23 03:52:59;;;;;;;3.72;3.38;;;25.50;95.00;;;;;;4793770;29;20046;-91
2021/07/23 03:55:25;;;;;;;3.05;2.72;;;25.50;95.00;;;;;;4790113;29;20482;-91
2021/07/23 03:58:00;;;;;;;3.25;2.95;;;25.40;94.90;;;;;;4789719;29;20038;-90
2021/07/23 04:00:39;;;;;;;3.08;2.78;;;25.40;94.90;;;;;;4790125;29;20045;-89
2021/07/23 04:03:14;;;;;;;3.40;3.00;;;25.40;94.90;;;;;;4805297;29;20073;-90
2021/07/23 04:05:57;;;;;;;3.90;3.10;;;25.40;94.90;;;;;;4789981;29;20130;-90
2021/07/23 04:08:28;;;;;;;3.03;2.70;;;25.40;94.90;;;;;;4790060;29;20043;-91
2021/07/23 04:10:58;;;;;;;3.10;2.80;;;25.40;94.90;;;;;;4805162;29;20027;-90
2021/07/23 04:13:27;;;;;;;3.42;3.05;;;25.40;94.90;;;;;;4806550;29;20034;-90
2021/07/23 04:15:55;;;;;;;2.95;2.65;;;25.40;94.90;;;;;;4789492;29;20554;-90
2021/07/23 04:18:21;;;;;;;3.25;2.95;;;25.40;94.90;;;;;;4789644;29;20071;-90
2021/07/23 04:20:51;;;;;;;3.28;2.97;;;25.40;94.90;;;;;;4804831;29;20069;-90
2021/07/23 04:23:23;;;;;;;3.00;2.70;;;25.40;94.90;;;;;;4806286;29;20466;-90
2021/07/23 04:25:49;;;;;;;4.80;2.80;;;25.40;94.90;;;;;;4789658;29;20043;-91
2021/07/23 04:28:25;;;;;;;;;;;;;;;;;;;;;
2021/07/23 04:30:58;;;;;;;3.33;2.85;;;25.40;94.90;;;;;;4813535;29;20413;-90
2021/07/23 04:33:24;;;;;;;3.33;3.03;;;25.40;94.80;;;;;;4793468;29;20096;-90
2021/07/23 04:35:54;;;;;;;3.45;3.00;;;25.40;94.80;;;;;;4809741;29;20035;-89
2021/07/23 04:38:22;;;;;;;3.58;3.00;;;25.40;94.80;;;;;;4793876;29;20038;-90
2021/07/23 04:40:57;;;;;;;3.53;3.20;;;25.40;94.80;;;;;;4812076;29;20030;-90
2021/07/23 04:43:25;;;;;;;3.83;3.25;;;25.40;94.80;;;;;;4809790;29;20067;-90
2021/07/23 04:45:51;;;;;;;3.60;3.22;;;25.40;94.80;;;;;;4809209;29;20091;-91
2021/07/23 04:48:28;;;;;;;3.03;2.72;;;25.40;94.80;;;;;;4809533;29;20031;-90
2021/07/23 04:51:00;;;;;;;3.90;3.25;;;25.40;94.80;;;;;;4808113;29;20066;-90
2021/07/23 04:53:32;;;;;;;3.28;2.97;;;25.30;94.80;;;;;;4820419;29;20034;-90
2021/07/23 04:56:02;;;;;;;3.25;2.95;;;25.30;94.80;;;;;;4808972;29;20058;-90
2021/07/23 04:58:28;;;;;;;2.88;2.67;;;25.30;94.80;;;;;;4792681;29;20050;-89
2021/07/23 05:00:56;;;;;;;3.33;2.97;;;25.30;94.80;;;;;;4792600;29;20443;-90
2021/07/23 06:42:19;;;;;;;2.40;2.20;;;25.20;94.70;;;;;;3533681;24;20312;-96
2021/07/23 07:03:04;;;;;;;2.95;2.60;;;25.20;94.50;;;;;;4818944;29;20069;-88
2021/07/23 07:08:51;;;;;;;2.35;2.10;;;25.30;94.80;;;;;;4792715;29;20071;-91
2021/07/23 07:11:28;;;;;;;3.25;2.92;;;25.30;95.10;;;;;;4768685;29;20096;-89
2021/07/23 07:13:59;;;;;;;3.15;2.83;;;25.30;95.40;;;;;;4777371;29;20035;-89
2021/07/23 07:16:36;;;;;;;3.10;2.80;;;25.40;95.70;;;;;;4806716;29;20039;-90
2021/07/23 07:19:05;;;;;;;3.80;2.78;;;25.40;95.70;;;;;;4790274;29;20034;-89
2021/07/23 07:21:33;;;;;;;4.10;3.00;;;25.40;95.70;;;;;;4802365;29;20081;-89
2021/07/23 07:24:04;;;;;;;3.35;2.70;;;25.40;95.60;;;;;;4805949;29;20500;-88
2021/07/23 07:26:35;;;;;;;3.22;2.70;;;25.40;95.40;;;;;;4776045;29;20171;-88
2021/07/23 07:29:06;;;;;;;3.92;3.00;;;25.50;95.30;;;;;;4791831;29;20035;-89
2021/07/23 07:31:54;;;;;;;3.13;2.75;;;25.50;95.20;;;;;;4779382;29;20500;-89
2021/07/23 07:34:23;;;;;;;3.03;2.50;;;25.50;95.00;;;;;;4790212;29;20500;-89
2021/07/23 07:36:57;;;;;;;4.40;3.40;;;25.50;94.90;;;;;;4775335;29;20350;-90
2021/07/23 07:39:30;;;;;;;3.58;3.20;;;25.50;94.80;;;;;;4776472;29;20401;-90
2021/07/23 07:42:09;;;;;;;3.37;2.87;;;25.60;94.70;;;;;;4790443;29;20130;-90
2021/07/23 07:44:50;;;;;;;3.35;2.95;;;25.60;94.60;;;;;;4775544;29;20280;-91
2021/07/23 07:47:16;;;;;;;3.60;2.75;;;25.60;94.50;;;;;;4775784;29;20137;-90
2021/07/23 07:49:54;;;;;;;2.63;2.42;;;25.60;94.50;;;;;;4794089;29;20046;-91
2021/07/23 07:52:45;;;;;;;3.47;2.75;;;25.60;94.50;;;;;;4775829;29;20091;-91
2021/07/23 07:55:32;;;;;;;3.08;2.53;;;25.60;94.70;;;;;;4791373;29;20057;-93
2021/07/23 07:58:03;;;;;;;2.58;2.38;;;25.60;94.50;;;;;;4794546;29;20070;-91
2021/07/23 08:00:38;;;;;;;2.80;2.28;;;25.60;94.50;;;;;;4760366;29;20047;-91
2021/07/23 08:03:39;;;;;;;2.55;2.35;;;25.60;94.50;;;;;;4789410;29;20082;-90
2021/07/23 08:09:06;;;;;;;;;;;;;;;;;;;;;
2021/07/23 08:11:44;;;;;;;2.20;2.00;;;25.50;94.30;;;;;;4808278;29;20030;-89
2021/07/23 08:14:21;;;;;;;2.38;2.17;;;25.50;94.30;;;;;;4762676;29;20039;-89
2021/07/23 08:17:03;;;;;;;2.20;2.00;;;25.50;94.30;;;;;;4789844;29;20042;-89
2021/07/23 08:19:37;;;;;;;1.85;1.75;;;25.50;94.20;;;;;;4788716;29;20103;-90
2021/07/23 08:25:59;;;;;;;2.33;2.08;;;25.40;94.20;;;;;;4782812;29;20454;-96
2021/07/23 08:29:14;;;;;;;;;;;;;;;;;;;;;
2021/07/23 08:32:37;;;;;;;;;;;;;;;;;;;;;
2021/07/23 08:39:31;;;;;;;;;;;;;;;;;;;;;
2021/07/23 08:45:55;;;;;;;;;;;;;;;;;;;;;
2021/07/23 08:49:08;;;;;;;;;;;;;;;;;;;;;
2021/07/23 08:52:34;;;;;;;;;;;;;;;;;;;;;
2021/07/23 08:58:56;;;;;;;;;;;;;;;;;;;;;
2021/07/23 09:08:28;;;;;;;1.85;1.50;;;25.40;93.90;;;;;;4780610;29;20039;-95
2021/07/23 09:11:59;;;;;;;;;;;;;;;;;;;;;
2021/07/23 09:15:18;;;;;;;;;;;;;;;;;;;;;
2021/07/23 09:18:28;;;;;;;;;;;;;;;;;;;;;
2021/07/23 09:24:31;;;;;;;;;;;;;;;;;;;;;
2021/07/23 09:27:16;;;;;;;;;;;;;;;;;;;;;
2021/07/23 09:33:45;;;;;;;;;;;;;;;;;;;;;
2021/07/23 09:40:20;;;;;;;;;;;;;;;;;;;;;
2021/07/23 09:47:10;;;;;;;;;;;;;;;;;;;;;
2021/07/23 09:50:18;;;;;;;;;;;;;;;;;;;;;
2021/07/23 09:54:09;;;;;;;;;;;;;;;;;;;;;
2021/07/23 10:00:20;;;;;;;;;;;;;;;;;;;;;
2021/07/23 11:04:47;;;;;;;1.88;1.75;;;25.50;94.20;;;;;;4803979;29;20062;-91
2021/07/23 11:07:23;;;;;;;2.40;2.20;;;25.50;94.20;;;;;;4790315;29;20565;-89
2021/07/23 11:09:50;;;;;;;2.10;1.90;;;25.40;94.10;;;;;;4792150;29;20050;-89
2021/07/23 11:12:25;;;;;;;2.13;1.92;;;25.50;94.20;;;;;;4805068;29;20114;-91
2021/07/23 11:15:05;;;;;;;2.20;2.00;;;25.50;94.20;;;;;;4793409;29;20373;-89
2021/07/23 11:17:48;;;;;;;2.28;2.08;;;25.50;94.20;;;;;;4806392;29;20039;-89
2021/07/23 11:20:22;;;;;;;2.33;2.13;;;25.50;94.20;;;;;;4790943;29;20041;-90
2021/07/23 11:22:57;;;;;;;2.50;2.30;;;25.50;94.20;;;;;;4791252;29;20122;-90
2021/07/23 11:25:34;;;;;;;2.47;2.25;;;25.50;94.20;;;;;;4790401;29;20039;-90
2021/07/23 11:28:02;;;;;;;2.55;2.35;;;25.50;94.20;;;;;;4808466;29;20038;-89
2021/07/23 11:30:35;;;;;;;2.40;2.20;;;25.50;94.20;;;;;;4806263;29;20064;-90
2021/07/23 11:33:04;;;;;;;2.75;2.55;;;25.40;94.20;;;;;;4805247;29;20443;-89
2021/07/23 11:35:40;;;;;;;2.28;2.08;;;25.50;94.30;;;;;;4806424;29;20034;-89
2021/07/23 11:38:16;;;;;;;3.13;2.88;;;25.50;94.20;;;;;;4793485;29;20035;-89
2021/07/23 11:40:45;;;;;;;2.53;2.30;;;25.50;94.30;;;;;;4807570;29;20031;-91
2021/07/23 11:43:28;;;;;;;2.75;2.55;;;25.40;94.20;;;;;;4793791;29;20034;-90
2021/07/23 11:45:56;;;;;;;2.63;2.42;;;25.50;94.30;;;;;;4790875;29;20150;-89
2021/07/23 11:48:39;;;;;;;3.00;2.67;;;25.50;94.30;;;;;;4804948;29;20153;-89
2021/07/23 11:51:07;;;;;;;2.67;2.47;;;25.40;94.30;;;;;;4806045;29;20110;-89
2021/07/23 11:53:40;;;;;;;2.85;2.58;;;25.40;94.30;;;;;;4790640;29;20035;-88
2021/07/23 11:56:08;;;;;;;2.75;2.55;;;25.50;94.30;;;;;;4803987;29;20046;-88
2021/07/23 11:59:05;;;;;;;2.53;2.33;;;25.50;94.30;;;;;;4795898;29;20077;-91
2021/07/23 12:01:49;;;;;;;3.17;2.70;;;25.50;94.30;;;;;;4804206;29;20134;-89
2021/07/23 12:04:31;;;;;;;3.20;2.85;;;25.40;94.30;;;;;;4788985;29;20066;-90
2021/07/23 12:07:02;;;;;;;2.88;2.63;;;25.40;94.30;;;;;;4804140;29;20035;-89
2021/07/23 12:09:30;;;;;;;2.90;2.60;;;25.40;94.30;;;;;;4794105;29;20043;-89
2021/07/23 12:11:58;;;;;;;3.17;2.80;;;25.40;94.30;;;;;;4804610;29;20035;-89
2021/07/23 12:14:25;;;;;;;2.70;2.50;;;25.40;94.30;;;;;;4789128;29;20055;-89
2021/07/23 12:16:55;;;;;;;2.70;2.50;;;25.40;94.30;;;;;;4789367;29;20077;-90
2021/07/23 12:19:41;;;;;;;3.10;2.80;;;25.40;94.30;;;;;;4806989;29;20054;-90
2021/07/23 12:22:15;;;;;;;3.17;2.88;;;25.40;94.30;;;;;;4798145;29;20027;-89
2021/07/23 12:25:35;;;;;;;;;;;;;;;;;;;;;
2021/07/23 13:04:48;;;;;;;2.60;2.40;;;25.50;94.40;;;;;;5077238;24;20313;-93
2021/07/23 13:08:10;;;;;;;;;;;;;;;;;;;;;
2021/07/23 13:54:01;;;;;;;;;;;;;;;;;;;;;
2021/07/23 13:57:26;;;;;;;;;;;;;;;;;;;;;
2021/07/23 14:00:16;;;;;;;1.67;1.58;;;25.60;94.10;;;;;;4808904;29;20045;-94
2021/07/23 14:03:08;;;;;;;1.73;1.63;;;25.60;94.10;;;;;;4804470;29;20038;-93
2021/07/23 14:05:57;;;;;;;1.92;1.60;;;25.60;94.20;;;;;;4794610;29;20039;-94
2021/07/23 14:08:45;;;;;;;1.73;1.63;;;25.60;94.20;;;;;;4788272;29;20054;-95
2021/07/23 14:11:25;;;;;;;1.55;1.45;;;25.60;94.20;;;;;;4808192;29;20027;-93
2021/07/23 14:13:53;;;;;;;1.55;1.42;;;25.60;94.10;;;;;;4793021;29;20038;-92
2021/07/23 14:16:24;;;;;;;2.22;1.90;;;25.60;94.10;;;;;;4810840;29;20557;-89
2021/07/23 14:23:36;;;;;;;;;;;;;;;;;;;;;
2021/07/23 14:29:32;;;;;;;;;;;;;;;;;;;;;
2021/07/23 14:55:27;;;;;;;3.53;3.10;;;25.50;93.50;;;;;;4910243;24;20160;-95
2021/07/23 15:01:28;;;;;;;2.65;2.45;;;25.50;93.60;;;;;;4805454;29;20070;-96
2021/07/23 15:05:05;;;;;;;;;;;;;;;;;;;;;
2021/07/23 15:08:27;;;;;;;2.67;2.45;;;25.50;93.60;;;;;;4796340;29;20034;-96
2021/07/23 15:11:19;;;;;;;2.38;2.17;;;25.40;93.60;;;;;;5222791;24;20072;-95
2021/07/23 15:15:07;;;;;;;;;;;;;;;;;;;;;
2021/07/23 15:31:17;;;;;;;2.28;2.08;;;25.30;93.60;;;;;;4699751;30;20050;-96
2021/07/23 15:41:11;;;;;;;2.00;1.73;;;25.30;93.70;;;;;;4685636;30;20041;-96
2021/07/23 15:54:50;;;;;;;;;;;;;;;;;;;;;
2021/07/23 15:58:03;;;;;;;;;;;;;;;;;;;;;
2021/07/23 16:00:54;;;;;;;;;;;;;;;;;;;;;
2021/07/23 16:03:46;;;;;;;1.80;1.70;;;25.30;93.60;;;;;;4825934;29;20469;-95
2021/07/23 16:07:04;;;;;;;;;;;;;;;;;;;;;
2021/07/23 16:21:14;;;;;;;;;;;;;;;;;;;;;
2021/07/23 16:28:21;;;;;;;;;;;;;;;;;;;;;
2021/07/23 16:41:48;;;;;;;1.95;1.75;;;25.30;93.60;;;;;;4779209;29;20044;-93
2021/07/23 16:44:42;;;;;;;2.13;1.85;;;25.30;93.70;;;;;;4836239;29;20039;-95
2021/07/23 16:47:55;;;;;;;1.97;1.80;;;25.30;94.00;;;;;;4818834;29;20085;-95
2021/07/23 16:51:20;;;;;;;2.00;1.80;;;25.30;94.30;;;;;;4834233;29;20433;-95
2021/07/23 16:54:12;;;;;;;;;;;;;;;;;;;;;
2021/07/23 17:00:33;;;;;;;1.50;1.40;;;25.40;94.60;;;;;;5181162;24;20076;-93
2021/07/23 17:03:35;;;;;;;;;;;;;;;;;;;;;
2021/07/23 17:16:48;;;;;;;;;;;;;;;;;;;;;
2021/07/23 17:19:45;;;;;;;1.90;1.65;;;25.40;95.00;;;;;;4768008;30;20086;-95
2021/07/23 17:31:29;;;;;;;;;;;;;;;;;;;;;
2021/07/23 17:37:56;;;;;;;1.77;1.67;;;25.40;95.10;;;;;;4803831;29;20199;-96
2021/07/23 18:04:44;;;;;;;1.55;1.45;;;25.30;95.30;;;;;;4781522;30;20055;-94
2021/07/23 18:16:20;;;;;;;;;;;;;;;;;;;;;
2021/07/23 18:22:36;;;;;;;;;;;;;;;;;;;;;
2021/07/23 18:42:20;;;;;;;2.92;2.30;;;25.20;95.60;;;;;;4952808;24;20062;-96
2021/07/23 18:44:56;;;;;;;2.00;1.90;;;25.20;95.60;;;;;;4804906;30;20125;-96
2021/07/23 18:47:32;;;;;;;2.40;2.20;;;25.20;95.60;;;;;;4790857;30;20035;-96
2021/07/23 18:52:56;;;;;;;2.17;1.98;;;25.20;95.70;;;;;;4803960;29;20035;-92
2021/07/23 18:55:22;;;;;;;2.42;2.22;;;25.20;95.70;;;;;;4797653;30;20055;-90
2021/07/23 18:57:47;;;;;;;2.50;2.30;;;25.20;95.70;;;;;;4779006;30;20137;-89
2021/07/23 19:00:18;;;;;;;2.25;2.05;;;25.20;95.70;;;;;;4796432;29;20051;-89
2021/07/23 19:02:49;;;;;;;2.88;2.08;;;25.30;95.80;;;;;;4781279;30;20027;-88
2021/07/23 19:05:18;;;;;;;2.83;2.03;;;25.20;95.70;;;;;;4783549;30;20510;-88
2021/07/23 19:07:44;;;;;;;1.83;1.73;;;25.20;95.70;;;;;;4785167;30;20038;-89
2021/07/23 19:10:14;;;;;;;2.47;1.92;;;25.30;95.80;;;;;;4783766;30;20114;-89
2021/07/23 19:12:43;;;;;;;2.53;2.30;;;25.20;95.80;;;;;;4784255;30;20368;-87
2021/07/23 19:15:11;;;;;;;2.13;1.92;;;25.20;95.80;;;;;;4761326;30;20043;-90
2021/07/23 19:17:49;;;;;;;2.35;2.15;;;25.20;95.80;;;;;;4773236;30;20059;-89
2021/07/23 19:20:18;;;;;;;3.05;2.28;;;25.20;95.90;;;;;;4773764;30;20100;-89
2021/07/23 19:22:48;;;;;;;2.42;2.22;;;25.30;95.90;;;;;;4788811;30;20066;-89
2021/07/23 19:25:24;;;;;;;2.60;2.38;;;25.20;96.00;;;;;;4773054;30;20031;-90
2021/07/23 19:27:54;;;;;;;2.55;2.35;;;25.20;96.00;;;;;;4772886;30;20494;-89
2021/07/23 19:30:25;;;;;;;2.35;2.15;;;25.20;96.00;;;;;;4790854;30;20136;-90
2021/07/23 19:32:55;;;;;;;2.50;2.30;;;25.20;96.00;;;;;;4773208;30;20122;-90
2021/07/23 19:35:26;;;;;;;2.50;2.30;;;25.20;96.00;;;;;;4788918;30;20471;-89
2021/07/23 19:38:03;;;;;;;1.80;1.70;;;25.20;96.10;;;;;;4758200;30;20034;-89
2021/07/23 19:40:29;;;;;;;2.47;1.98;;;25.20;96.10;;;;;;4774089;30;20115;-89
2021/07/23 19:42:57;;;;;;;2.10;1.90;;;25.20;96.10;;;;;;4772399;30;20079;-89
2021/07/23 19:45:33;;;;;;;2.35;2.03;;;25.20;96.20;;;;;;4758094;30;20035;-90
2021/07/23 19:47:59;;;;;;;2.08;1.88;;;25.20;96.20;;;;;;4758699;30;20048;-90
2021/07/23 19:50:27;;;;;;;2.00;1.90;;;25.20;96.20;;;;;;4775528;30;20046;-91
2021/07/23 19:52:56;;;;;;;1.98;1.77;;;25.20;96.30;;;;;;4802292;29;20091;-89
2021/07/23 19:55:24;;;;;;;1.77;1.67;;;25.20;96.30;;;;;;4788063;30;20335;-88
2021/07/23 19:58:01;;;;;;;2.00;1.80;;;25.20;96.30;;;;;;4772810;30;20055;-89
2021/07/23 20:00:27;;;;;;;1.85;1.75;;;25.20;96.30;;;;;;4759093;30;20126;-90
2021/07/23 20:02:55;;;;;;;2.30;2.10;;;25.20;96.30;;;;;;4776067;29;20064;-90
2021/07/23 20:05:21;;;;;;;1.98;1.77;;;25.20;96.30;;;;;;4787245;30;20535;-91
2021/07/23 20:07:50;;;;;;;2.20;1.95;;;25.20;96.30;;;;;;4762637;29;20035;-90
2021/07/23 20:10:23;;;;;;;2.80;2.20;;;25.20;96.40;;;;;;4774971;30;20122;-90
2021/07/23 20:12:55;;;;;;;1.77;1.65;;;25.20;96.40;;;;;;4760512;29;20035;-89
2021/07/23 20:15:21;;;;;;;1.60;1.50;;;25.20;96.40;;;;;;4790595;30;20036;-89
2021/07/23 20:18:00;;;;;;;1.88;1.67;;;25.20;96.40;;;;;;4785389;30;20035;-88
2021/07/23 20:20:28;;;;;;;2.00;1.80;;;25.20;96.40;;;;;;4777387;30;20043;-91
2021/07/23 20:22:54;;;;;;;1.67;1.58;;;25.20;96.40;;;;;;4773602;30;20054;-88
2021/07/23 20:25:20;;;;;;;1.75;1.65;;;25.10;96.30;;;;;;4788669;30;20055;-89
2021/07/23 20:27:45;;;;;;;1.85;1.60;;;25.10;96.30;;;;;;4792185;30;20032;-88
2021/07/23 20:30:14;;;;;;;1.80;1.70;;;25.10;96.50;;;;;;4790769;30;20394;-89
2021/07/23 20:32:40;;;;;;;1.67;1.58;;;25.10;96.30;;;;;;4773057;30;20032;-90
2021/07/23 20:35:09;;;;;;;1.83;1.55;;;25.10;96.30;;;;;;4788262;30;20499;-88
2021/07/23 20:37:36;;;;;;;1.80;1.58;;;25.10;96.40;;;;;;4773671;30;20517;-88
2021/07/23 20:40:06;;;;;;;1.80;1.65;;;25.10;96.40;;;;;;4772472;30;20065;-88
2021/07/23 20:42:32;;;;;;;1.50;1.40;;;25.10;96.40;;;;;;4775124;29;20042;-90
2021/07/23 20:45:07;;;;;;;1.42;1.33;;;25.10;96.40;;;;;;4773553;30;20035;-91
2021/07/23 20:47:34;;;;;;;1.55;1.45;;;25.10;96.40;;;;;;4788358;30;20050;-90
2021/07/23 20:50:01;;;;;;;1.58;1.48;;;25.10;96.40;;;;;;4772200;30;20463;-89
2021/07/23 20:52:27;;;;;;;1.70;1.60;;;25.10;96.40;;;;;;4771125;30;20111;-88
2021/07/23 20:55:02;;;;;;;1.67;1.58;;;25.10;96.40;;;;;;4784415;30;20039;-88
2021/07/23 20:57:28;;;;;;;1.98;1.83;;;25.10;96.40;;;;;;4783903;30;20040;-87
2021/07/23 20:59:56;;;;;;;1.73;1.63;;;25.10;96.40;;;;;;4788012;30;20032;-89
2021/07/23 21:02:22;;;;;;;1.67;1.58;;;25.10;96.40;;;;;;4787471;30;20062;-88
2021/07/23 21:04:50;;;;;;;1.85;1.75;;;25.10;96.60;;;;;;4756594;30;20032;-87
2021/07/23 21:07:16;;;;;;;1.60;1.50;;;25.10;96.40;;;;;;4771255;30;20043;-88
2021/07/23 21:09:42;;;;;;;1.80;1.70;;;25.10;96.40;;;;;;4773862;30;20038;-88
2021/07/23 21:12:10;;;;;;;1.75;1.65;;;25.10;96.40;;;;;;4774519;30;20036;-88
2021/07/23 21:14:36;;;;;;;2.20;2.00;;;25.10;96.40;;;;;;4779343;29;20062;-90
2021/07/23 21:17:06;;;;;;;1.50;1.40;;;25.10;96.40;;;;;;4781668;29;20524;-88
2021/07/23 21:19:32;;;;;;;2.00;1.80;;;25.10;96.40;;;;;;4773856;30;20043;-90
2021/07/23 21:21:58;;;;;;;1.65;1.55;;;25.10;96.40;;;;;;4774689;30;20035;-88
2021/07/23 21:24:26;;;;;;;1.30;1.20;;;25.10;96.30;;;;;;4778643;30;20039;-88
2021/07/23 21:26:52;;;;;;;1.40;1.30;;;25.10;96.30;;;;;;4781105;30;20314;-88
2021/07/23 21:29:18;;;;;;;1.50;1.40;;;25.10;96.30;;;;;;4773112;30;20486;-88
2021/07/23 21:31:43;;;;;;;1.60;1.50;;;25.10;96.30;;;;;;4777072;30;20035;-89
2021/07/23 21:34:12;;;;;;;1.63;1.52;;;25.10;96.20;;;;;;4775547;30;20051;-88
2021/07/23 21:36:39;;;;;;;1.40;1.30;;;25.10;96.20;;;;;;4775063;30;20043;-88
2021/07/23 21:39:05;;;;;;;1.38;1.23;;;25.00;96.20;;;;;;4784005;29;20035;-88
2021/07/23 21:41:37;;;;;;;1.30;1.20;;;25.00;96.20;;;;;;4774535;30;20058;-88
2021/07/23 21:44:03;;;;;;;1.85;1.38;;;25.00;96.20;;;;;;4773961;30;20062;-89
2021/07/23 21:46:29;;;;;;;1.40;1.30;;;25.00;96.10;;;;;;4773950;30;20035;-88
2021/07/23 21:48:54;;;;;;;1.67;1.40;;;25.00;96.10;;;;;;4790311;30;20039;-88
2021/07/23 21:51:20;;;;;;;1.50;1.40;;;25.00;96.10;;;;;;4773532;30;20412;-88
2021/07/23 21:53:46;;;;;;;1.33;1.23;;;25.00;96.10;;;;;;4773389;30;20085;-88
2021/07/23 21:56:11;;;;;;;1.40;1.30;;;25.00;96.10;;;;;;4758810;30;20047;-89
2021/07/23 21:58:37;;;;;;;1.63;1.20;;;25.00;96.10;;;;;;4773365;30;20360;-90
2021/07/23 22:01:03;;;;;;;1.50;1.40;;;25.00;96.10;;;;;;4758731;30;20551;-89
2021/07/23 22:03:31;;;;;;;1.40;1.27;;;25.00;96.10;;;;;;4775476;30;20058;-90
2021/07/23 22:05:57;;;;;;;1.40;1.30;;;25.00;96.10;;;;;;4759281;30;20096;-90
2021/07/23 22:08:23;;;;;;;1.73;1.33;;;25.00;96.10;;;;;;4773594;30;20031;-88
2021/07/23 22:10:49;;;;;;;1.42;1.33;;;25.00;96.20;;;;;;4759864;30;20043;-88
2021/07/23 22:13:14;;;;;;;1.25;1.15;;;25.00;96.20;;;;;;4775016;30;20039;-90
2021/07/23 22:15:40;;;;;;;1.35;1.25;;;25.00;96.10;;;;;;4774780;30;20046;-90
2021/07/23 22:18:05;;;;;;;1.70;1.60;;;25.00;96.10;;;;;;4760629;30;20035;-88
2021/07/23 22:20:31;;;;;;;1.30;1.20;;;25.00;96.10;;;;;;4763028;29;20499;-89
2021/07/23 22:22:57;;;;;;;1.30;1.20;;;25.00;96.10;;;;;;4778090;30;20484;-89
2021/07/23 22:25:24;;;;;;;1.23;1.13;;;25.00;96.20;;;;;;4761704;30;20456;-89
2021/07/23 22:27:50;;;;;;;1.33;1.23;;;25.00;96.20;;;;;;4773116;30;20032;-88
2021/07/23 22:30:16;;;;;;;1.30;1.20;;;25.00;96.20;;;;;;4773091;30;20055;-88
2021/07/23 22:32:41;;;;;;;1.38;1.27;;;25.00;96.20;;;;;;4758074;30;20032;-90
2021/07/23 22:35:07;;;;;;;1.85;1.42;;;25.00;96.20;;;;;;4788806;30;20058;-89
2021/07/23 22:37:33;;;;;;;1.42;1.33;;;25.00;96.20;;;;;;4773662;30;20043;-90
2021/07/23 22:39:59;;;;;;;1.35;1.25;;;25.00;96.20;;;;;;4767808;30;20062;-89
2021/07/23 22:42:24;;;;;;;1.38;1.27;;;25.00;96.20;;;;;;4780552;30;20118;-89
2021/07/23 22:44:50;;;;;;;1.27;1.17;;;25.00;96.20;;;;;;4774439;30;20487;-89
2021/07/23 22:47:15;;;;;;;1.40;1.30;;;25.00;96.20;;;;;;4759002;30;20043;-89
2021/07/23 22:49:41;;;;;;;1.48;1.38;;;25.00;96.20;;;;;;4743709;30;20035;-90
2021/07/23 22:52:07;;;;;;;1.50;1.40;;;25.00;96.30;;;;;;4743695;30;20043;-90
2021/07/23 22:54:32;;;;;;;1.50;1.40;;;25.00;96.30;;;;;;4757938;30;20065;-90
2021/07/23 22:56:58;;;;;;;1.50;1.40;;;25.00;96.20;;;;;;4756812;30;20518;-90
2021/07/23 22:59:24;;;;;;;1.60;1.50;;;25.00;96.20;;;;;;4761575;30;20122;-89
2021/07/23 23:01:49;;;;;;;1.67;1.50;;;25.00;96.20;;;;;;4757857;30;20031;-90
2021/07/23 23:04:15;;;;;;;1.77;1.60;;;25.00;96.20;;;;;;4759537;30;20039;-90
2021/07/23 23:06:41;;;;;;;2.03;1.83;;;25.00;96.30;;;;;;4758829;30;20032;-90
2021/07/23 23:09:07;;;;;;;2.45;2.25;;;25.00;96.30;;;;;;4758702;30;20062;-91
2021/07/23 23:11:32;;;;;;;1.90;1.70;;;25.00;96.30;;;;;;4759556;30;20497;-91
2021/07/23 23:13:58;;;;;;;2.50;2.08;;;25.00;96.30;;;;;;4771935;30;20035;-90
2021/07/23 23:16:24;;;;;;;2.25;2.05;;;25.00;96.30;;;;;;4774651;30;20051;-90
2021/07/23 23:18:50;;;;;;;2.88;2.33;;;25.00;96.30;;;;;;4757627;30;20036;-92
2021/07/23 23:21:16;;;;;;;2.60;2.35;;;25.00;96.30;;;;;;4757322;30;20046;-90
2021/07/23 23:23:41;;;;;;;2.78;2.50;;;25.00;96.30;;;;;;4761434;30;20039;-90
2021/07/23 23:26:07;;;;;;;3.40;3.10;;;25.00;96.30;;;;;;4742708;30;20116;-90
2021/07/23 23:28:36;;;;;;;3.65;3.28;;;25.10;96.40;;;;;;4772532;30;20463;-89
2021/07/23 23:31:01;;;;;;;3.50;3.20;;;25.10;96.40;;;;;;4759636;29;20055;-90
2021/07/23 23:33:33;;;;;;;3.20;2.90;;;25.10;96.40;;;;;;4771028;30;20082;-90
2021/07/23 23:36:13;;;;;;;4.47;4.07;;;25.10;96.40;;;;;;4771955;30;20043;-90
2021/07/23 23:38:39;;;;;;;4.20;3.80;;;25.10;96.40;;;;;;4784180;30;20019;-89
2021/07/23 23:41:07;;;;;;;4.00;3.60;;;25.10;96.40;;;;;;4808682;29;20035;-89
2021/07/23 23:43:33;;;;;;;4.65;4.20;;;25.00;96.40;;;;;;4791546;30;20052;-89
2021/07/23 23:46:01;;;;;;;4.18;3.70;;;25.10;96.40;;;;;;4809308;29;20031;-89
2021/07/23 23:48:29;;;;;;;4.60;4.13;;;25.10;96.40;;;;;;4786011;29;20077;-90
2021/07/23 23:50:56;;;;;;;4.80;4.28;;;25.00;96.40;;;;;;4774093;30;20039;-90
2021/07/23 23:53:26;;;;;;;5.22;4.75;;;25.00;96.40;;;;;;4777011;30;20401;-90
2021/07/23 23:56:01;;;;;;;;;;;;;;;;;;;;;
2021/07/23 23:58:31;;;;;;;6.03;5.40;;;25.10;96.40;;;;;;4787837;30;20454;-89
